Time;durP1;ratioP1;P1;durP2;ratioP2;P2;SDS_P1;SDS_P2;PMS_P1;PMS_P2;Temp;Humidity;BMP_temperature;BMP_pressure;BME280_temperature;BME280_humidity;BME280_pressure;Samples;Min_cycle;Max_cycle;Signal;HPM_P1;HPM_P2
2020/12/30 00:01:36;;;;;;;22.35;11.80;;;;;;;6.17;89.34;100155.66;1784791;80;21846;-66
2020/12/30 00:04:03;;;;;;;24.95;12.33;;;;;;;6.16;89.34;100159.41;1793156;79;21118;-66
2020/12/30 00:06:31;;;;;;;20.90;10.30;;;;;;;6.15;89.40;100161.28;1793073;80;21157;-67
2020/12/30 00:08:59;;;;;;;20.60;10.65;;;;;;;6.18;89.42;100168.24;1793198;80;22016;-66
2020/12/30 00:11:26;;;;;;;21.75;10.55;;;;;;;6.20;89.39;100164.84;1793054;80;21340;-66
2020/12/30 00:13:53;;;;;;;21.82;11.22;;;;;;;6.19;89.41;100171.30;1792798;79;21774;-66
2020/12/30 00:16:21;;;;;;;22.50;11.15;;;;;;;6.18;89.46;100178.61;1788167;80;21891;-66
2020/12/30 00:18:48;;;;;;;21.20;9.93;;;;;;;6.16;89.49;100182.02;1778939;80;21853;-66
2020/12/30 00:21:16;;;;;;;18.40;8.73;;;;;;;6.16;89.53;100187.46;1778916;80;21481;-65
2020/12/30 00:23:43;;;;;;;19.45;8.73;;;;;;;6.18;89.54;100187.28;1756860;81;21864;-66
2020/12/30 00:26:11;;;;;;;16.10;8.13;;;;;;;6.20;89.56;100190.67;1779021;80;21435;-66
2020/12/30 00:28:39;;;;;;;18.10;9.58;;;;;;;6.18;89.57;100185.92;1784436;80;21222;-66
2020/12/30 00:31:06;;;;;;;16.77;8.50;;;;;;;6.18;89.63;100184.05;1785001;80;21161;-66
2020/12/30 00:33:33;;;;;;;16.30;7.85;;;;;;;6.17;89.64;100174.20;1785110;80;21439;-65
2020/12/30 00:36:00;;;;;;;13.88;7.17;;;;;;;6.19;89.64;100175.38;1785028;80;21342;-65
2020/12/30 00:38:28;;;;;;;15.00;7.50;;;;;;;6.22;89.71;100183.19;1785098;80;21313;-66
2020/12/30 00:40:55;;;;;;;15.00;7.67;;;;;;;6.22;89.71;100185.91;1784959;80;21866;-66
2020/12/30 00:43:23;;;;;;;12.35;6.45;;;;;;;6.21;89.71;100185.06;1784879;80;21328;-66
2020/12/30 00:45:50;;;;;;;13.68;6.47;;;;;;;6.21;89.66;100189.66;1784948;80;21173;-65
2020/12/30 00:48:17;;;;;;;12.60;6.78;;;;;;;6.18;89.62;100179.97;1784972;80;21886;-66
2020/12/30 00:50:44;;;;;;;11.40;6.67;;;;;;;6.16;89.60;100185.25;1785047;80;21416;-66
2020/12/30 00:53:12;;;;;;;14.58;7.58;;;;;;;6.14;89.63;100188.14;1785061;80;21220;-66
2020/12/30 00:55:40;;;;;;;12.65;6.70;;;;;;;6.16;89.75;100183.89;1785109;80;21276;-66
2020/12/30 00:58:18;;;;;;;13.55;7.15;;;;;;;6.18;89.75;100181.33;1784644;80;21260;-65
2020/12/30 01:00:46;;;;;;;16.67;7.67;;;;;;;6.17;89.70;100176.06;1785091;80;21350;-65
2020/12/30 01:03:33;;;;;;;15.65;7.90;;;;;;;6.18;89.68;100184.56;1785020;80;21197;-66
2020/12/30 01:06:04;;;;;;;16.55;8.78;;;;;;;6.17;89.71;100181.50;1785005;80;21504;-65
2020/12/30 01:08:32;;;;;;;14.90;7.05;;;;;;;6.16;89.74;100177.94;1785179;80;21865;-66
2020/12/30 01:10:59;;;;;;;15.58;7.30;;;;;;;6.17;89.73;100179.63;1784781;80;21860;-65
2020/12/30 01:13:26;;;;;;;15.45;7.65;;;;;;;6.19;89.70;100177.59;1785000;80;21387;-66
2020/12/30 01:15:54;;;;;;;15.48;8.20;;;;;;;6.18;89.66;100172.32;1791877;80;21121;-67
2020/12/30 01:18:21;;;;;;;15.88;7.55;;;;;;;6.18;89.74;100184.05;1763935;81;21440;-66
2020/12/30 01:20:48;;;;;;;16.50;7.40;;;;;;;6.20;89.79;100193.40;1794972;80;21514;-66
2020/12/30 01:23:16;;;;;;;16.57;8.05;;;;;;;6.20;89.77;100183.37;1763915;81;21506;-65
2020/12/30 01:25:43;;;;;;;18.70;9.20;;;;;;;6.23;89.77;100190.33;1794987;80;21268;-65
2020/12/30 01:28:11;;;;;;;18.20;8.58;;;;;;;6.23;89.74;100186.25;1764047;81;21412;-65
2020/12/30 01:30:38;;;;;;;18.07;9.20;;;;;;;6.25;89.77;100193.21;1795241;80;21426;-66
2020/12/30 01:33:06;;;;;;;17.30;8.48;;;;;;;6.27;89.84;100189.80;1764085;81;21106;-66
2020/12/30 01:35:34;;;;;;;16.85;8.33;;;;;;;6.29;89.78;100195.07;1795128;80;21255;-65
2020/12/30 01:38:01;;;;;;;17.82;9.35;;;;;;;6.28;89.71;100201.02;1763866;81;21869;-66
2020/12/30 01:40:29;;;;;;;17.55;8.90;;;;;;;6.26;89.65;100196.78;1795073;80;21267;-65
2020/12/30 01:42:56;;;;;;;19.07;9.50;;;;;;;6.24;89.66;100191.52;1759590;81;21112;-66
2020/12/30 01:45:24;;;;;;;20.85;9.25;;;;;;;6.21;89.65;100188.30;1762349;80;21211;-66
2020/12/30 01:47:51;;;;;;;18.25;9.03;;;;;;;6.20;89.64;100188.80;1790034;80;21128;-66
2020/12/30 01:50:19;;;;;;;21.50;9.70;;;;;;;6.22;89.59;100185.91;1762365;81;21180;-66
2020/12/30 01:52:47;;;;;;;22.05;10.80;;;;;;;6.22;89.61;100172.31;1789897;79;21395;-66
2020/12/30 01:55:16;;;;;;;23.80;10.20;;;;;;;6.26;89.71;100177.22;1761864;81;21216;-65
2020/12/30 01:57:44;;;;;;;22.20;9.95;;;;;;;6.25;89.64;100167.37;1790190;80;21842;-65
2020/12/30 02:00:11;;;;;;;22.80;10.03;;;;;;;6.26;89.58;100170.42;1762226;81;21530;-66
2020/12/30 02:02:39;;;;;;;22.15;10.38;;;;;;;6.26;89.51;100168.22;1790143;79;21167;-65
2020/12/30 02:05:07;;;;;;;26.42;10.88;;;;;;;6.26;89.52;100162.26;1778697;80;21143;-65
2020/12/30 02:07:34;;;;;;;21.65;9.80;;;;;;;6.26;89.50;100164.13;1762286;81;21426;-67
2020/12/30 02:10:02;;;;;;;24.60;10.78;;;;;;;6.25;89.50;100173.31;1763269;80;21172;-67
2020/12/30 02:12:29;;;;;;;24.02;10.50;;;;;;;6.24;89.45;100175.70;1790011;80;21931;-65
2020/12/30 02:14:57;;;;;;;20.97;9.50;;;;;;;6.24;89.46;100171.11;1789849;79;21180;-65
2020/12/30 02:17:24;;;;;;;23.50;10.95;;;;;;;6.26;89.50;100158.69;1762258;81;21184;-65
2020/12/30 02:19:51;;;;;;;26.90;11.85;;;;;;;6.24;89.47;100167.54;1790013;79;21366;-65
2020/12/30 02:22:21;;;;;;;28.25;11.45;;;;;;;6.22;89.44;100170.95;1789950;79;21179;-65
2020/12/30 02:24:49;;;;;;;28.62;11.68;;;;;;;6.20;89.40;100164.33;1762347;80;21328;-65
2020/12/30 02:27:16;;;;;;;25.08;11.60;;;;;;;6.21;89.38;100171.97;1789843;79;21941;-65
2020/12/30 02:29:43;;;;;;;30.80;12.50;;;;;;;6.20;89.35;100171.64;1789880;79;21951;-65
2020/12/30 02:32:11;;;;;;;28.98;13.00;;;;;;;6.19;89.38;100162.63;1762247;81;21876;-65
2020/12/30 02:34:38;;;;;;;30.72;13.55;;;;;;;6.19;89.44;100151.75;1789822;80;21150;-65
2020/12/30 02:37:06;;;;;;;32.40;14.13;;;;;;;6.21;89.46;100162.45;1789922;79;21414;-66
2020/12/30 02:39:33;;;;;;;41.02;18.07;;;;;;;6.21;89.38;100166.02;1789976;80;21354;-67
2020/12/30 02:42:00;;;;;;;41.63;17.62;;;;;;;6.18;89.29;100165.01;1762162;81;21267;-67
2020/12/30 02:44:28;;;;;;;44.10;18.60;;;;;;;6.17;89.33;100161.95;1789881;79;21906;-66
2020/12/30 02:46:55;;;;;;;40.92;16.57;;;;;;;6.15;89.36;100166.72;1762192;80;21438;-68
2020/12/30 02:49:22;;;;;;;43.68;17.05;;;;;;;6.16;89.36;100162.98;1789015;79;21140;-66
2020/12/30 02:51:50;;;;;;;45.65;18.40;;;;;;;6.18;89.34;100163.65;1762128;80;21402;-64
2020/12/30 02:54:18;;;;;;;47.93;18.82;;;;;;;6.17;89.34;100161.95;1789526;79;21964;-66
2020/12/30 02:56:46;;;;;;;40.83;18.02;;;;;;;6.18;89.35;100166.37;1789621;79;21396;-66
2020/12/30 02:59:13;;;;;;;43.10;18.12;;;;;;;6.19;89.31;100161.27;1789868;80;21259;-65
2020/12/30 03:01:44;;;;;;;42.00;17.65;;;;;;;6.18;89.22;100162.80;1789929;79;21415;-65
2020/12/30 03:04:11;;;;;;;40.35;18.50;;;;;;;6.19;89.18;100152.26;1789955;79;21145;-67
2020/12/30 03:06:38;;;;;;;40.70;17.30;;;;;;;6.20;89.18;100153.44;1789775;79;21375;-67
2020/12/30 03:09:06;;;;;;;52.40;18.73;;;;;;;6.20;89.13;100152.08;1789907;80;21404;-66
2020/12/30 03:11:34;;;;;;;45.65;17.40;;;;;;;6.17;89.07;100154.30;1789825;79;21145;-65
2020/12/30 03:14:03;;;;;;;52.03;18.00;;;;;;;6.16;89.04;100145.81;1789871;79;21147;-66
2020/12/30 03:16:30;;;;;;;45.50;18.80;;;;;;;6.16;89.00;100146.66;1783371;78;21168;-65
2020/12/30 03:18:58;;;;;;;45.17;19.32;;;;;;;6.14;88.96;100147.86;1779951;80;21440;-66
2020/12/30 03:21:25;;;;;;;49.58;20.45;;;;;;;6.12;88.95;100160.27;1779984;79;21394;-65
2020/12/30 03:23:52;;;;;;;44.23;18.98;;;;;;;6.11;88.96;100149.56;1779945;80;21299;-68
2020/12/30 03:26:20;;;;;;;53.98;20.90;;;;;;;6.11;88.98;100148.20;1780147;79;21414;-65
2020/12/30 03:28:47;;;;;;;46.08;20.75;;;;;;;6.11;88.93;100140.05;1779950;79;21145;-66
2020/12/30 03:31:15;;;;;;;43.65;19.85;;;;;;;6.10;88.98;100133.76;1780030;80;21430;-66
2020/12/30 03:33:42;;;;;;;43.55;20.12;;;;;;;6.10;89.02;100133.76;1779781;79;21428;-66
2020/12/30 03:36:10;;;;;;;46.23;20.72;;;;;;;6.10;89.04;100132.91;1780007;80;21423;-66
2020/12/30 03:38:37;;;;;;;46.60;19.65;;;;;;;6.09;88.98;100131.22;1779998;80;21161;-65
2020/12/30 03:41:04;;;;;;;46.02;20.95;;;;;;;6.09;88.96;100127.13;1779982;80;21924;-65
2020/12/30 03:43:32;;;;;;;43.17;21.30;;;;;;;6.09;88.97;100130.70;1779958;80;21322;-65
2020/12/30 03:45:59;;;;;;;38.33;19.45;;;;;;;6.07;88.96;100126.46;1779914;79;21360;-65
2020/12/30 03:48:26;;;;;;;39.90;19.82;;;;;;;6.06;89.00;100120.69;1779918;80;21488;-65
2020/12/30 03:50:54;;;;;;;39.18;18.37;;;;;;;6.07;89.01;100119.66;1780054;80;21542;-65
2020/12/30 03:53:21;;;;;;;38.63;17.50;;;;;;;6.08;88.96;100119.48;1780041;80;21149;-65
2020/12/30 03:55:49;;;;;;;41.02;19.48;;;;;;;6.08;88.89;100126.28;1779880;80;21150;-65
2020/12/30 03:58:16;;;;;;;39.23;18.75;;;;;;;6.08;88.88;100129.01;1780097;80;21858;-65
2020/12/30 04:00:44;;;;;;;42.05;17.92;;;;;;;6.09;88.86;100133.94;1780088;80;21170;-66
2020/12/30 04:03:11;;;;;;;34.03;16.75;;;;;;;6.09;88.82;100139.38;1779941;80;21746;-65
2020/12/30 04:05:39;;;;;;;33.42;17.32;;;;;;;6.06;88.71;100140.57;1780286;80;21806;-65
2020/12/30 04:08:06;;;;;;;33.65;18.12;;;;;;;6.04;88.67;100132.59;1780053;80;21316;-65
2020/12/30 04:10:35;;;;;;;35.60;17.60;;;;;;;6.01;88.66;100134.30;1780025;79;21114;-66
2020/12/30 04:13:03;;;;;;;34.35;16.52;;;;;;;5.98;88.67;100134.65;1780217;79;21395;-66
2020/12/30 04:15:30;;;;;;;33.23;16.23;;;;;;;5.99;88.70;100143.14;1781073;80;21915;-65
2020/12/30 04:17:58;;;;;;;32.60;16.97;;;;;;;5.99;88.69;100137.70;1790179;79;21117;-66
2020/12/30 04:20:26;;;;;;;34.43;17.67;;;;;;;5.99;88.67;100143.66;1789853;79;21891;-66
2020/12/30 04:22:53;;;;;;;33.08;17.90;;;;;;;5.99;88.71;100143.66;1775230;80;21368;-65
2020/12/30 04:25:21;;;;;;;31.82;16.23;;;;;;;6.00;88.73;100151.64;1763535;80;21145;-66
2020/12/30 04:27:49;;;;;;;30.70;15.08;;;;;;;6.03;88.73;100155.88;1763745;80;21181;-66
2020/12/30 04:30:16;;;;;;;28.50;14.78;;;;;;;6.03;88.70;100155.37;1763659;80;21817;-66
2020/12/30 04:32:43;;;;;;;31.80;17.00;;;;;;;6.03;88.57;100162.68;1763936;80;21578;-66
2020/12/30 04:35:11;;;;;;;31.77;16.30;;;;;;;5.96;88.42;100153.02;1763967;80;21460;-66
2020/12/30 04:37:40;;;;;;;31.45;15.55;;;;;;;5.91;88.38;100152.69;1763878;80;21169;-66
2020/12/30 04:40:07;;;;;;;33.80;17.00;;;;;;;5.89;88.29;100153.38;1763786;80;21950;-67
2020/12/30 04:42:36;;;;;;;36.53;18.65;;;;;;;5.86;88.27;100150.97;1763611;80;22052;-64
2020/12/30 04:45:07;;;;;;;34.05;18.20;;;;;;;5.86;88.31;100144.16;1763667;80;21883;-65
2020/12/30 04:47:35;;;;;;;33.45;17.70;;;;;;;5.85;88.37;100147.91;1763476;80;21423;-66
2020/12/30 04:50:04;;;;;;;38.02;17.92;;;;;;;5.85;88.42;100151.98;1764104;80;22386;-66
2020/12/30 04:52:31;;;;;;;35.58;17.95;;;;;;;5.86;88.41;100151.48;1763895;80;21859;-66
2020/12/30 04:54:59;;;;;;;34.15;18.12;;;;;;;5.83;88.36;100154.00;1747102;81;21145;-66
2020/12/30 04:57:44;;;;;;;32.40;18.07;;;;;;;5.83;88.38;100153.15;1763807;80;21929;-67
2020/12/30 05:00:11;;;;;;;36.98;18.95;;;;;;;5.83;88.37;100151.79;1763785;80;21137;-67
2020/12/30 05:02:44;;;;;;;32.75;16.57;;;;;;;5.81;88.37;100148.39;1763821;80;21310;-65
2020/12/30 05:05:12;;;;;;;35.52;17.32;;;;;;;5.81;88.41;100138.37;1748921;81;21825;-66
2020/12/30 05:07:39;;;;;;;34.95;18.07;;;;;;;5.82;88.34;100143.30;1763779;80;21674;-66
2020/12/30 05:10:07;;;;;;;34.03;18.23;;;;;;;5.81;88.33;100139.73;1763964;80;21981;-66
2020/12/30 05:12:34;;;;;;;34.85;18.87;;;;;;;5.84;88.39;100141.25;1763700;80;21168;-67
2020/12/30 05:15:02;;;;;;;37.65;19.73;;;;;;;5.86;88.43;100136.02;1763801;81;21853;-66
2020/12/30 05:17:30;;;;;;;34.95;17.40;;;;;;;5.87;88.43;100136.86;1754586;80;21173;-66
2020/12/30 05:19:57;;;;;;;33.00;16.35;;;;;;;5.88;88.39;100140.77;1740700;81;21407;-65
2020/12/30 05:22:24;;;;;;;33.60;18.65;;;;;;;5.89;88.34;100149.29;1751765;81;21356;-66
2020/12/30 05:24:52;;;;;;;33.98;18.55;;;;;;;5.91;88.27;100158.13;1751889;81;21423;-65
2020/12/30 05:27:20;;;;;;;34.30;19.05;;;;;;;5.90;88.24;100157.78;1751681;81;21327;-66
2020/12/30 05:29:50;;;;;;;35.88;16.07;;;;;;;5.89;88.19;100157.92;1752039;81;21368;-65
2020/12/30 05:32:18;;;;;;;32.45;16.55;;;;;;;5.87;88.17;100155.37;1751448;81;21388;-65
2020/12/30 05:34:46;;;;;;;30.08;16.15;;;;;;;5.88;88.18;100157.08;1751567;81;21281;-66
2020/12/30 05:37:17;;;;;;;25.85;14.93;;;;;;;5.89;88.21;100166.97;1751661;81;21165;-65
2020/12/30 05:39:45;;;;;;;27.45;15.78;;;;;;;5.88;88.18;100167.95;1751436;81;21184;-65
2020/12/30 05:42:18;;;;;;;31.40;15.72;;;;;;;5.84;88.14;100165.72;1751697;82;21316;-66
2020/12/30 05:44:47;;;;;;;30.35;16.48;;;;;;;5.84;88.21;100169.80;1751738;81;21878;-65
2020/12/30 05:47:17;;;;;;;30.97;16.37;;;;;;;5.85;88.20;100171.50;1751484;82;21777;-66
2020/12/30 05:49:46;;;;;;;29.57;15.95;;;;;;;5.84;88.19;100163.85;1751743;81;21458;-65
2020/12/30 05:52:19;;;;;;;32.40;17.05;;;;;;;5.84;88.23;100172.01;1751663;81;21224;-66
2020/12/30 05:54:54;;;;;;;29.60;15.13;;;;;;;5.83;88.24;100167.59;1751946;82;21245;-67
2020/12/30 05:57:30;;;;;;;36.40;17.85;;;;;;;5.83;88.24;100167.59;1761788;80;21177;-65
2020/12/30 06:00:01;;;;;;;34.40;17.87;;;;;;;5.85;88.21;100176.94;1748199;82;21411;-66
2020/12/30 06:02:31;;;;;;;39.63;20.02;;;;;;;5.84;88.23;100171.16;1747861;81;21150;-65
2020/12/30 06:05:09;;;;;;;40.67;20.37;;;;;;;5.85;88.33;100175.58;1748381;81;22040;-65
2020/12/30 06:07:39;;;;;;;32.88;17.82;;;;;;;5.88;88.35;100178.83;1751275;81;21205;-65
2020/12/30 06:10:09;;;;;;;37.73;20.30;;;;;;;5.89;88.32;100179.20;1751588;81;21279;-66
2020/12/30 06:12:53;;;;;;;32.53;18.37;;;;;;;5.89;88.34;100177.84;1751675;81;21166;-66
2020/12/30 06:15:23;;;;;;;31.05;16.93;;;;;;;5.92;88.39;100182.94;1751450;81;21431;-65
2020/12/30 06:18:01;;;;;;;36.63;16.85;;;;;;;5.89;88.35;100180.56;1772139;79;21816;-65
2020/12/30 06:20:40;;;;;;;28.42;14.25;;;;;;;5.89;88.40;100191.44;1779645;80;21384;-66
2020/12/30 06:23:14;;;;;;;26.10;14.73;;;;;;;5.89;88.38;100190.08;1779399;80;21872;-66
2020/12/30 06:25:49;;;;;;;32.65;16.40;;;;;;;5.90;88.47;100195.84;1779619;80;21566;-65
2020/12/30 06:28:20;;;;;;;26.37;14.65;;;;;;;5.92;88.56;100191.09;1779558;80;21441;-66
2020/12/30 06:30:49;;;;;;;25.02;13.22;;;;;;;5.93;88.61;100187.34;1779543;79;21498;-68
2020/12/30 06:33:22;;;;;;;32.83;14.25;;;;;;;5.96;88.67;100191.08;1779825;80;21317;-66
2020/12/30 06:35:54;;;;;;;24.98;15.10;;;;;;;6.01;88.68;100191.41;1779807;79;21328;-65
2020/12/30 06:38:27;;;;;;;24.20;14.65;;;;;;;6.02;88.65;100184.09;1779475;79;21423;-65
2020/12/30 06:41:00;;;;;;;25.12;13.53;;;;;;;6.05;88.72;100187.83;1779637;80;21321;-65
2020/12/30 06:43:46;;;;;;;27.75;15.18;;;;;;;6.07;88.74;100184.94;1779844;80;21337;-65
2020/12/30 06:46:26;;;;;;;25.55;13.40;;;;;;;6.09;88.72;100181.53;1779618;80;21272;-66
2020/12/30 06:49:03;;;;;;;26.23;14.20;;;;;;;6.12;88.66;100183.91;1779585;79;21420;-65
2020/12/30 06:51:39;;;;;;;24.30;13.08;;;;;;;6.11;88.64;100169.97;1779713;80;21134;-66
2020/12/30 06:54:06;;;;;;;31.27;14.28;;;;;;;6.10;88.63;100169.63;1779719;79;21343;-67
2020/12/30 06:56:47;;;;;;;28.38;15.35;;;;;;;6.11;88.64;100166.73;1779913;80;21280;-66
2020/12/30 06:59:16;;;;;;;25.27;14.43;;;;;;;6.11;88.58;100161.30;1779741;80;21375;-66
2020/12/30 07:01:57;;;;;;;24.85;13.98;;;;;;;6.12;88.57;100159.42;1779918;80;21234;-66
2020/12/30 07:04:26;;;;;;;23.50;11.90;;;;;;;6.12;88.64;100149.91;1779711;80;21850;-67
2020/12/30 07:06:55;;;;;;;35.35;17.57;;;;;;;6.14;88.69;100154.14;1779734;80;21926;-66
2020/12/30 07:09:35;;;;;;;32.13;17.60;;;;;;;6.17;88.67;100149.72;1779787;80;21452;-66
2020/12/30 07:12:08;;;;;;;30.10;17.35;;;;;;;6.20;88.73;100151.23;1779740;80;21402;-66
2020/12/30 07:14:37;;;;;;;32.15;18.45;;;;;;;6.21;88.77;100157.86;1779724;80;21424;-66
2020/12/30 07:17:09;;;;;;;33.05;16.82;;;;;;;6.22;88.76;100147.83;1779682;80;21412;-65
2020/12/30 07:19:40;;;;;;;40.28;20.23;;;;;;;6.22;88.71;100150.03;1779780;80;21165;-66
2020/12/30 07:22:14;;;;;;;47.78;23.40;;;;;;;6.24;88.67;100158.02;1779927;80;21473;-65
2020/12/30 07:24:49;;;;;;;46.50;22.50;;;;;;;6.22;88.62;100160.92;1779636;80;21411;-65
2020/12/30 07:27:16;;;;;;;40.85;22.77;;;;;;;6.23;88.63;100172.64;1780574;79;21987;-66
2020/12/30 07:29:46;;;;;;;44.00;18.67;;;;;;;6.22;88.65;100170.95;1779567;80;21570;-66
2020/12/30 07:32:18;;;;;;;45.40;23.20;;;;;;;6.24;88.65;100171.11;1779756;80;21180;-65
2020/12/30 07:34:48;;;;;;;34.90;18.15;;;;;;;6.26;88.57;100165.49;1779531;80;21340;-65
2020/12/30 07:37:16;;;;;;;28.52;15.55;;;;;;;6.25;88.48;100166.52;1779723;80;21121;-65
2020/12/30 07:39:45;;;;;;;28.30;15.80;;;;;;;6.22;88.45;100156.83;1779602;80;21358;-65
2020/12/30 07:42:23;;;;;;;31.87;15.43;;;;;;;6.17;88.39;100158.39;1779574;79;21146;-67
2020/12/30 07:44:55;;;;;;;29.65;15.98;;;;;;;6.17;88.39;100161.95;1779410;79;21896;-65
2020/12/30 07:47:26;;;;;;;30.02;15.45;;;;;;;6.17;88.33;100163.83;1779468;79;21789;-65
2020/12/30 07:50:00;;;;;;;36.63;21.37;;;;;;;6.18;88.32;100170.97;1779593;79;21352;-66
2020/12/30 07:52:27;;;;;;;29.50;16.30;;;;;;;6.15;88.25;100162.64;1779873;80;21888;-67
2020/12/30 07:54:56;;;;;;;31.23;16.00;;;;;;;6.14;88.31;100165.02;1779641;79;21281;-66
2020/12/30 07:57:23;;;;;;;28.30;15.40;;;;;;;6.13;88.19;100159.76;1784742;78;21691;-66
2020/12/30 07:59:53;;;;;;;26.87;15.30;;;;;;;6.12;88.17;100168.94;1761487;80;21155;-66
2020/12/30 08:02:20;;;;;;;30.32;16.45;;;;;;;6.12;88.19;100174.38;1751508;80;22007;-66
2020/12/30 08:04:52;;;;;;;34.50;18.73;;;;;;;6.11;88.21;100172.69;1750957;80;21215;-65
2020/12/30 08:07:19;;;;;;;68.42;33.78;;;;;;;6.12;88.22;100169.79;1725745;82;21411;-67
2020/12/30 08:09:47;;;;;;;62.45;31.12;;;;;;;6.13;88.17;100169.28;1779736;80;21395;-66
2020/12/30 08:12:15;;;;;;;60.43;30.92;;;;;;;6.13;88.19;100163.84;1779644;80;21177;-67
2020/12/30 08:14:44;;;;;;;41.55;22.22;;;;;;;6.14;88.21;100161.45;1766320;80;21436;-66
2020/12/30 08:17:15;;;;;;;42.93;24.25;;;;;;;6.18;88.25;100165.52;1795657;79;21333;-68
2020/12/30 08:19:45;;;;;;;37.73;20.48;;;;;;;6.20;88.25;100167.05;1795419;78;21390;-67
2020/12/30 08:22:19;;;;;;;32.15;16.40;;;;;;;6.22;88.21;100170.44;1790268;79;21195;-68
2020/12/30 08:24:57;;;;;;;28.85;15.03;;;;;;;6.28;88.29;100171.61;1764207;80;21250;-68
2020/12/30 08:27:30;;;;;;;25.67;14.57;;;;;;;6.32;88.35;100172.44;1791900;79;21876;-68
2020/12/30 08:30:01;;;;;;;28.05;13.68;;;;;;;6.36;88.29;100170.22;1792269;79;21832;-67
2020/12/30 08:32:52;;;;;;;24.70;13.65;;;;;;;6.39;88.25;100169.86;1784338;79;21408;-67
2020/12/30 08:35:25;;;;;;;25.43;13.85;;;;;;;6.43;88.20;100156.75;1787788;80;21433;-66
2020/12/30 08:38:14;;;;;;;26.87;13.88;;;;;;;6.42;87.96;100160.50;1787002;80;21214;-67
2020/12/30 08:40:42;;;;;;;;;;;;;;;6.40;87.83;100166.12;1790339;80;21381;-66
2020/12/30 08:43:41;;;;;;;28.25;14.35;;;;;;;6.36;87.76;100169.70;1787673;80;20329;-66
2020/12/30 08:46:11;;;;;;;26.62;13.32;;;;;;;6.34;87.76;100170.39;1787632;80;21952;-65
2020/12/30 08:48:47;;;;;;;23.10;12.63;;;;;;;6.36;87.75;100176.51;1787795;80;21760;-65
2020/12/30 08:51:33;;;;;;;36.48;16.90;;;;;;;6.36;87.69;100162.05;1784492;79;21883;-66
2020/12/30 08:54:01;;;;;;;36.88;18.02;;;;;;;6.40;87.77;100164.75;1790741;80;21363;-66
2020/12/30 08:56:30;;;;;;;43.75;23.55;;;;;;;6.44;87.76;100149.77;1777982;80;21987;-66
2020/12/30 08:58:58;;;;;;;56.23;26.40;;;;;;;6.44;87.65;100156.58;1795269;78;21275;-67
2020/12/30 09:01:27;;;;;;;37.58;19.50;;;;;;;6.44;87.49;100153.84;1795203;80;21609;-68
2020/12/30 09:04:12;;;;;;;33.05;18.37;;;;;;;6.47;87.43;100152.14;1795137;80;21812;-66
2020/12/30 09:06:39;;;;;;;29.72;16.75;;;;;;;6.43;87.24;100142.63;1795159;78;21840;-66
2020/12/30 09:09:11;;;;;;;29.42;14.43;;;;;;;6.39;87.20;100154.89;1795244;80;21471;-67
2020/12/30 09:11:48;;;;;;;33.40;16.87;;;;;;;6.35;87.17;100148.96;1795503;79;21444;-66
2020/12/30 09:14:21;;;;;;;41.00;19.00;;;;;;;6.33;87.18;100144.72;1794533;79;21848;-66
2020/12/30 09:17:05;;;;;;;29.48;16.82;;;;;;;6.35;87.28;100148.11;1794604;80;21180;-67
2020/12/30 09:19:32;;;;;;;29.80;15.98;;;;;;;6.38;87.31;100150.99;1769957;80;21524;-67
2020/12/30 09:22:11;;;;;;;39.03;19.98;;;;;;;6.40;87.30;100144.86;1761427;80;21434;-67
2020/12/30 09:24:41;;;;;;;31.93;16.12;;;;;;;6.38;87.24;100145.03;1772352;80;21161;-67
2020/12/30 09:27:20;;;;;;;32.85;15.78;;;;;;;6.39;87.26;100139.08;1788195;80;21313;-67
2020/12/30 09:30:15;;;;;;;32.85;14.65;;;;;;;6.40;87.21;100134.82;1788966;80;21140;-67
2020/12/30 09:32:45;;;;;;;31.40;16.35;;;;;;;6.41;87.14;100125.63;1788494;80;21162;-70
2020/12/30 09:35:15;;;;;;;47.40;22.93;;;;;;;6.41;87.13;100122.06;1791747;80;21177;-66
2020/12/30 09:37:57;;;;;;;48.15;24.45;;;;;;;6.39;87.09;100117.31;1793708;80;21177;-67
2020/12/30 09:40:26;;;;;;;44.38;21.48;;;;;;;6.37;87.07;100110.69;1793919;80;21156;-67
2020/12/30 09:43:15;;;;;;;35.17;17.23;;;;;;;6.38;87.15;100111.02;1793510;80;21364;-66
2020/12/30 09:45:43;;;;;;;34.48;18.92;;;;;;;6.40;87.18;100114.41;1793469;80;21173;-68
2020/12/30 09:48:19;;;;;;;37.63;18.40;;;;;;;6.39;87.18;100116.80;1793474;80;21357;-67
2020/12/30 09:50:49;;;;;;;33.33;16.60;;;;;;;6.43;87.28;100109.13;1773183;80;21153;-65
2020/12/30 09:53:17;;;;;;;32.63;15.65;;;;;;;6.46;87.33;100108.26;1752268;81;21160;-65
2020/12/30 09:55:47;;;;;;;30.43;15.35;;;;;;;6.48;87.27;100101.28;1754310;81;21168;-66
2020/12/30 09:58:15;;;;;;;31.57;15.90;;;;;;;6.51;87.18;100107.24;1753639;81;21905;-67
2020/12/30 10:00:42;;;;;;;35.10;16.87;;;;;;;6.52;87.13;100095.84;1754037;81;21749;-67
2020/12/30 10:03:10;;;;;;;32.28;16.30;;;;;;;6.53;87.21;100097.53;1754534;81;21160;-67
2020/12/30 10:05:37;;;;;;;35.17;15.95;;;;;;;6.54;87.22;100101.44;1767711;81;21185;-65
2020/12/30 10:08:05;;;;;;;33.02;14.93;;;;;;;6.55;87.19;100102.29;1769250;81;21892;-70
2020/12/30 10:10:32;;;;;;;32.38;15.23;;;;;;;6.56;87.14;100098.03;1718871;78;21361;-73
2020/12/30 10:12:59;;;;;;;31.55;15.25;;;;;;;6.58;87.11;100106.86;1716745;81;22009;-72
2020/12/30 10:15:28;;;;;;;37.23;17.40;;;;;;;6.58;87.16;100094.61;1724766;81;21203;-72
2020/12/30 10:17:55;;;;;;;34.15;17.07;;;;;;;6.57;87.11;100095.64;1739980;81;21203;-76
2020/12/30 10:20:23;;;;;;;37.08;16.77;;;;;;;6.55;87.07;100096.33;1718295;81;21224;-74
2020/12/30 10:22:50;;;;;;;34.50;15.95;;;;;;;6.56;87.17;100091.73;1710890;84;21644;-75
2020/12/30 10:25:17;;;;;;;37.67;17.10;;;;;;;6.60;87.24;100082.19;1710921;84;21161;-74
2020/12/30 10:27:45;;;;;;;49.60;23.35;;;;;;;6.61;87.19;100088.80;1711034;82;21152;-76
2020/12/30 10:30:13;;;;;;;42.13;18.70;;;;;;;6.62;87.19;100087.78;1711004;82;21280;-72
2020/12/30 10:32:40;;;;;;;39.85;19.02;;;;;;;6.63;87.18;100080.46;1711024;82;21183;-73
2020/12/30 10:35:08;;;;;;;38.00;17.65;;;;;;;6.62;87.14;100071.95;1711083;82;21153;-73
2020/12/30 10:37:35;;;;;;;37.05;17.50;;;;;;;6.61;87.18;100061.59;1711036;84;21203;-76
2020/12/30 10:40:04;;;;;;;58.25;26.90;;;;;;;6.62;87.23;100063.28;1710897;82;21399;-72
2020/12/30 10:42:32;;;;;;;140.37;43.23;;;;;;;6.64;87.25;100065.31;1711008;82;21212;-74
2020/12/30 10:44:59;;;;;;;176.90;52.90;;;;;;;6.65;87.25;100068.36;1710403;82;21271;-76
2020/12/30 10:47:27;;;;;;;182.47;54.58;;;;;;;6.66;87.31;100066.48;1709375;84;21200;-71
2020/12/30 10:49:54;;;;;;;111.70;38.98;;;;;;;6.67;87.37;100060.02;1709380;84;21168;-71
2020/12/30 10:52:22;;;;;;;142.98;50.30;;;;;;;6.68;87.40;100056.27;1707867;84;21828;-68
2020/12/30 10:54:51;;;;;;;52.83;24.40;;;;;;;6.72;87.49;100058.11;1708276;82;21179;-70
2020/12/30 10:57:19;;;;;;;36.98;16.87;;;;;;;6.77;87.50;100062.50;1707609;82;21366;-66
2020/12/30 10:59:46;;;;;;;35.33;17.00;;;;;;;6.77;87.47;100049.73;1707556;82;21391;-65
2020/12/30 11:02:13;;;;;;;30.97;14.68;;;;;;;6.77;87.47;100040.72;1707421;82;21163;-71
2020/12/30 11:04:41;;;;;;;26.97;13.68;;;;;;;6.78;87.42;100046.49;1707704;82;21902;-62
2020/12/30 11:07:08;;;;;;;39.50;17.42;;;;;;;6.78;87.42;100045.13;1707353;82;21314;-64
2020/12/30 11:09:36;;;;;;;33.80;17.30;;;;;;;6.77;87.42;100043.44;1707246;83;21928;-67
2020/12/30 11:12:05;;;;;;;47.33;22.35;;;;;;;6.79;87.47;100040.86;1695984;84;21447;-64
2020/12/30 11:14:33;;;;;;;33.33;15.93;;;;;;;6.80;87.51;100043.92;1697288;84;21412;-64
2020/12/30 11:17:00;;;;;;;39.13;18.02;;;;;;;6.79;87.48;100028.61;1697285;84;21930;-74
2020/12/30 11:19:27;;;;;;;28.12;12.40;;;;;;;6.80;87.48;100029.46;1704707;82;21209;-71
2020/12/30 11:21:55;;;;;;;25.68;13.48;;;;;;;6.82;87.45;100032.33;1691918;83;21192;-66
2020/12/30 11:24:22;;;;;;;30.00;13.85;;;;;;;6.86;87.62;100035.53;1657679;84;21285;-70
2020/12/30 11:26:50;;;;;;;28.77;15.13;;;;;;;6.93;87.68;100035.14;1676324;84;21185;-75
2020/12/30 11:29:19;;;;;;;29.60;13.70;;;;;;;6.95;87.62;100027.63;1672572;85;21177;-69
2020/12/30 11:31:47;;;;;;;30.43;13.88;;;;;;;6.98;87.53;100020.45;1699322;84;21241;-71